createdAt,value
2022-09-21T00:00:05.107Z,1.1
2022-09-21T00:05:05.106Z,1.1
2022-09-21T00:10:05.097Z,1.1
2022-09-21T00:15:05.105Z,1.1
2022-09-21T00:20:05.112Z,1.1
2022-09-21T00:25:05.096Z,1.1
2022-09-21T00:30:05.093Z,1.2
2022-09-21T00:35:05.107Z,1.2
2022-09-21T00:40:05.135Z,1.2
2022-09-21T00:45:05.092Z,1.2
2022-09-21T00:50:05.103Z,1.1
2022-09-21T00:55:05.100Z,1.1
2022-09-21T01:00:05.102Z,1
2022-09-21T01:05:05.106Z,1
2022-09-21T01:10:05.122Z,1.1
2022-09-21T01:15:05.090Z,1.1
2022-09-21T01:20:05.117Z,1.2
2022-09-21T01:25:05.104Z,1.2
2022-09-21T01:30:05.106Z,1.1
2022-09-21T01:35:05.099Z,1.1
2022-09-21T01:40:05.147Z,1.1
2022-09-21T01:45:05.098Z,1.1
2022-09-21T01:50:05.116Z,1.2
2022-09-21T01:55:05.106Z,1.2
2022-09-21T02:00:05.111Z,0.9
2022-09-21T02:05:05.107Z,0.9
2022-09-21T02:10:05.107Z,1.1
2022-09-21T02:15:05.099Z,1.1
2022-09-21T02:20:05.099Z,1.5
2022-09-21T02:25:05.094Z,1.5
2022-09-21T02:30:05.102Z,1.3
2022-09-21T02:35:05.092Z,1.3
2022-09-21T02:40:05.155Z,1.3
2022-09-21T02:45:05.093Z,1.3
2022-09-21T02:50:05.096Z,1.2
2022-09-21T02:55:05.086Z,1.2
2022-09-21T03:00:05.140Z,1.2
2022-09-21T03:05:05.091Z,1.2
2022-09-21T03:10:05.092Z,1.5
2022-09-21T03:15:05.085Z,1.5
2022-09-21T03:20:05.090Z,1.2
2022-09-21T03:25:05.094Z,1.2
2022-09-21T03:30:05.098Z,1.3
2022-09-21T03:35:05.097Z,1.3
2022-09-21T03:40:05.178Z,1.4
2022-09-21T03:45:05.102Z,1.4
2022-09-21T03:50:09.198Z,1.2
2022-09-21T03:55:05.102Z,1.2
2022-09-21T04:00:05.109Z,1.5
2022-09-21T04:05:05.088Z,1.5
2022-09-21T04:10:05.098Z,1.7
2022-09-21T04:15:05.088Z,1.7
2022-09-21T04:20:05.107Z,1.5
2022-09-21T04:25:05.112Z,1.5
2022-09-21T04:30:05.099Z,1.7
2022-09-21T04:35:05.091Z,1.7
2022-09-21T04:40:05.147Z,1.8
2022-09-21T04:45:05.099Z,1.8
2022-09-21T04:50:05.135Z,1.7
2022-09-21T04:55:05.087Z,1.7
2022-09-21T05:00:05.094Z,1.6
2022-09-21T05:05:05.103Z,1.6
2022-09-21T05:10:05.102Z,1.9
2022-09-21T05:15:05.097Z,1.9
2022-09-21T05:20:05.098Z,2
2022-09-21T05:25:05.093Z,2
2022-09-21T05:30:05.091Z,2.6
2022-09-21T05:35:05.092Z,2.6
2022-09-21T05:40:05.157Z,2.1
2022-09-21T05:45:05.093Z,2.1
2022-09-21T05:50:05.104Z,1.8
2022-09-21T05:55:05.101Z,1.8
2022-09-21T06:00:05.116Z,1.9
2022-09-21T06:05:05.090Z,1.9
2022-09-21T06:10:05.096Z,1.8
2022-09-21T06:15:05.092Z,1.8
2022-09-21T06:20:05.105Z,1.8
2022-09-21T06:25:05.094Z,1.8
2022-09-21T06:30:05.100Z,2.3
2022-09-21T06:35:05.110Z,2.3
2022-09-21T06:40:05.120Z,2.4
2022-09-21T06:45:05.099Z,2.4
2022-09-21T06:50:05.105Z,3.4
2022-09-21T06:55:05.106Z,3.4
2022-09-21T07:00:05.104Z,3.1
2022-09-21T07:05:05.114Z,3.1
2022-09-21T07:10:05.994Z,3.2
2022-09-21T07:15:05.106Z,3.2
2022-09-21T07:20:05.100Z,3.9
2022-09-21T07:25:05.095Z,3.9
2022-09-21T07:30:05.101Z,3.9
2022-09-21T07:35:05.089Z,3.9
2022-09-21T07:40:05.173Z,4.7
2022-09-21T07:45:05.224Z,4.7
2022-09-21T07:50:05.117Z,3.3
2022-09-21T07:55:05.107Z,3.3
2022-09-21T08:00:05.100Z,3.5
2022-09-21T08:05:05.099Z,3.5
2022-09-21T08:10:05.109Z,5
2022-09-21T08:15:05.118Z,5
2022-09-21T08:20:05.150Z,5.3
2022-09-21T08:25:05.111Z,5.3
2022-09-21T08:30:05.113Z,5.8
2022-09-21T08:35:05.094Z,5.8
2022-09-21T08:40:05.167Z,5.9
2022-09-21T08:45:05.095Z,5.9
2022-09-21T08:50:05.106Z,5.9
2022-09-21T08:55:05.167Z,5.9
2022-09-21T09:00:05.105Z,5.9
2022-09-21T09:05:05.093Z,5.9
2022-09-21T09:10:05.103Z,6.5
2022-09-21T09:15:05.092Z,6.5
2022-09-21T09:20:05.108Z,6.3
2022-09-21T09:25:05.093Z,6.3
2022-09-21T09:30:05.103Z,6.9
2022-09-21T09:35:05.090Z,6.9
2022-09-21T09:40:05.151Z,6.4
2022-09-21T09:45:05.110Z,6.4
2022-09-21T09:50:05.103Z,5.2
2022-09-21T09:55:05.103Z,5.2
2022-09-21T10:00:05.140Z,4.9
2022-09-21T10:05:05.105Z,4.9
2022-09-21T10:10:05.096Z,5.8
2022-09-21T10:15:05.096Z,5.8
2022-09-21T10:20:05.104Z,6.5
2022-09-21T10:25:05.139Z,6.5
2022-09-21T10:30:05.089Z,5.8
2022-09-21T10:35:05.101Z,5.8
2022-09-21T10:40:05.129Z,5.7
2022-09-21T10:45:05.112Z,5.7
2022-09-21T10:50:05.099Z,5.6
2022-09-21T10:55:05.088Z,5.6
2022-09-21T11:00:05.116Z,4.6
2022-09-21T11:05:05.094Z,4.6
2022-09-21T11:10:05.107Z,3.3
2022-09-21T11:15:05.089Z,3.3
2022-09-21T11:20:05.104Z,2.2
2022-09-21T11:25:05.095Z,2.2
2022-09-21T11:30:05.107Z,2.3
2022-09-21T11:35:05.089Z,2.3
2022-09-21T11:40:05.169Z,2.1
2022-09-21T11:45:05.815Z,2.1
2022-09-21T11:50:29.020Z,1.6
2022-09-21T11:55:05.097Z,1.6
2022-09-21T12:00:05.117Z,1.7
2022-09-21T12:05:05.099Z,1.7
2022-09-21T12:10:06.288Z,1.7
2022-09-21T12:15:05.130Z,1.7
2022-09-21T12:20:05.102Z,1.4
2022-09-21T12:25:05.087Z,1.4
2022-09-21T12:30:05.094Z,1.2
2022-09-21T12:35:05.103Z,1.2
2022-09-21T12:40:05.173Z,1.2
2022-09-21T12:45:05.096Z,1.2
2022-09-21T12:50:05.116Z,1.2
2022-09-21T12:55:05.104Z,1.2
2022-09-21T13:00:05.130Z,1.1
2022-09-21T13:05:05.133Z,1.1
2022-09-21T13:10:05.091Z,1.2
2022-09-21T13:15:05.107Z,1.2
2022-09-21T13:20:05.101Z,1.3
2022-09-21T13:25:05.096Z,1.3
2022-09-21T13:30:05.096Z,1.5
2022-09-21T13:35:05.110Z,1.5
2022-09-21T13:40:05.165Z,1.7
2022-09-21T13:45:05.100Z,1.7
2022-09-21T13:50:05.092Z,1.3
2022-09-21T13:55:05.113Z,1.3
2022-09-21T14:00:05.116Z,1.7
2022-09-21T14:05:05.101Z,1.7
2022-09-21T14:10:05.109Z,1.4
2022-09-21T14:15:05.105Z,1.4
2022-09-21T14:20:05.103Z,1.4
2022-09-21T14:25:05.100Z,1.4
2022-09-21T14:30:07.701Z,1.4
2022-09-21T14:35:05.094Z,1.4
2022-09-21T14:40:05.148Z,1.5
2022-09-21T14:45:05.092Z,1.5
2022-09-21T14:50:07.008Z,1.4
2022-09-21T14:55:05.112Z,1.4
2022-09-21T15:00:05.098Z,1.6
2022-09-21T15:05:05.097Z,1.6
2022-09-21T15:10:05.121Z,0.8
2022-09-21T15:15:05.088Z,0.8
2022-09-21T15:20:05.105Z,1.2
2022-09-21T15:25:05.096Z,1.2
2022-09-21T15:30:05.090Z,1.4
2022-09-21T15:35:05.093Z,1.4
2022-09-21T15:40:05.156Z,1.5
2022-09-21T15:45:05.154Z,1.5
2022-09-21T15:50:05.099Z,1.5
2022-09-21T15:55:05.145Z,1.5
2022-09-21T16:00:05.100Z,1.3
2022-09-21T16:05:05.108Z,1.3
2022-09-21T16:10:05.098Z,1.6
2022-09-21T16:15:05.104Z,1.6
2022-09-21T16:20:05.113Z,1.1
2022-09-21T16:25:05.102Z,1.1
2022-09-21T16:30:05.097Z,1.2
2022-09-21T16:35:05.158Z,1.2
2022-09-21T16:40:05.162Z,1.1
2022-09-21T16:45:05.097Z,1.1
2022-09-21T16:50:05.167Z,1.4
2022-09-21T16:55:05.097Z,1.4
2022-09-21T17:00:05.101Z,1.5
2022-09-21T17:05:05.102Z,1.5
2022-09-21T17:10:05.106Z,1.9
2022-09-21T17:15:05.105Z,1.9
2022-09-21T17:20:05.114Z,1.4
2022-09-21T17:25:05.086Z,1.4
2022-09-21T17:30:05.103Z,1.4
2022-09-21T17:35:05.098Z,1.4
2022-09-21T17:40:09.960Z,1.6
2022-09-21T17:45:05.094Z,1.6
2022-09-21T17:50:05.103Z,1.5
2022-09-21T17:55:06.049Z,1.5
2022-09-21T18:00:05.100Z,1.7
2022-09-21T18:05:05.094Z,1.7
2022-09-21T18:10:05.097Z,1.4
2022-09-21T18:15:05.104Z,1.4
2022-09-21T18:20:05.098Z,1.5
2022-09-21T18:25:05.096Z,1.5
2022-09-21T18:30:05.101Z,1.6
2022-09-21T18:35:05.103Z,1.6
2022-09-21T18:40:05.116Z,1.5
2022-09-21T18:45:05.095Z,1.5
2022-09-21T18:50:05.099Z,1.4
2022-09-21T18:55:05.095Z,1.4
2022-09-21T19:00:05.098Z,1.5
2022-09-21T19:05:05.100Z,1.5
2022-09-21T19:10:05.108Z,1.4
2022-09-21T19:15:07.856Z,1.4
2022-09-21T19:20:05.090Z,1.4
2022-09-21T19:25:05.095Z,1.4
2022-09-21T19:30:05.099Z,1.7
2022-09-21T19:35:05.092Z,1.7
2022-09-21T19:40:05.159Z,1.6
2022-09-21T19:45:05.086Z,1.6
2022-09-21T19:50:05.107Z,1.5
2022-09-21T19:55:05.093Z,1.5
2022-09-21T20:00:05.103Z,1.3
2022-09-21T20:05:05.103Z,1.3
2022-09-21T20:10:05.102Z,1.5
2022-09-21T20:15:05.100Z,1.5
2022-09-21T20:20:05.097Z,1.2
2022-09-21T20:25:05.091Z,1.2
2022-09-21T20:30:05.100Z,1.4
2022-09-21T20:35:05.107Z,1.4
2022-09-21T20:40:05.136Z,1.5
2022-09-21T20:45:05.087Z,1.5
2022-09-21T20:50:05.091Z,1.6
2022-09-21T20:55:05.269Z,1.6
2022-09-21T21:00:05.113Z,1.7
2022-09-21T21:05:05.151Z,1.7
2022-09-21T21:10:05.104Z,1.8
2022-09-21T21:15:05.118Z,1.8
2022-09-21T21:20:05.106Z,1.6
2022-09-21T21:25:05.109Z,1.6
2022-09-21T21:30:05.093Z,1.9
2022-09-21T21:35:05.102Z,1.9
2022-09-21T21:40:05.175Z,1.7
2022-09-21T21:45:05.125Z,1.7
2022-09-21T21:50:05.107Z,1.9
2022-09-21T21:55:05.101Z,1.9
2022-09-21T22:00:05.118Z,1.8
2022-09-21T22:05:05.092Z,1.8
2022-09-21T22:10:05.108Z,1.8
2022-09-21T22:15:05.099Z,2
2022-09-21T22:20:05.117Z,2
2022-09-21T22:25:05.096Z,1.9
2022-09-21T22:30:05.098Z,1.9
2022-09-21T22:35:05.097Z,2.2
2022-09-21T22:40:05.118Z,2.2
2022-09-21T22:45:05.091Z,2
2022-09-21T22:50:05.107Z,2
2022-09-21T22:55:05.103Z,2.3
2022-09-21T23:00:05.107Z,2.3
2022-09-21T23:05:05.104Z,2.5
2022-09-21T23:10:05.103Z,2.5
2022-09-21T23:15:05.123Z,2.4
2022-09-21T23:20:05.099Z,2.4
2022-09-21T23:25:05.091Z,2.6
2022-09-21T23:30:05.102Z,2.6
2022-09-21T23:35:05.090Z,2.6
2022-09-21T23:40:05.128Z,2.6
2022-09-21T23:45:05.096Z,2.6
2022-09-21T23:50:05.093Z,2.6
2022-09-21T23:55:05.092Z,2.8
